Time;durP1;ratioP1;P1;durP2;ratioP2;P2;SDS_P1;SDS_P2;PMS_P1;PMS_P2;Temp;Humidity;BMP_temperature;BMP_pressure;BME280_temperature;BME280_humidity;BME280_pressure;Samples;Min_cycle;Max_cycle;Signal;HPM_P1;HPM_P2
2022/04/23 00:02:04;;;;;;;28.50;21.60;;;;;;;4.92;76.06;99883.89;88283;1273;82365;-71
2022/04/23 00:04:14;;;;;;;23.90;19.20;;;;;;;4.92;76.16;99881.02;88255;1273;98368;-59
2022/04/23 00:06:23;;;;;;;22.70;18.40;;;;;;;4.94;75.96;99877.62;88284;1273;88189;-61
2022/04/23 00:08:32;;;;;;;25.00;18.60;;;;;;;4.97;76.17;99875.84;88183;1274;94762;-60
2022/04/23 00:10:44;;;;;;;24.20;18.10;;;;;;;5.00;75.94;99870.72;88294;1273;79314;-59
2022/04/23 00:12:56;;;;;;;23.90;17.80;;;;;;;5.03;76.00;99870.86;88263;1273;83316;-60
2022/04/23 00:15:15;;;;;;;23.10;17.10;;;;;;;5.05;76.07;99867.30;88276;1273;99430;-71
2022/04/23 00:17:26;;;;;;;25.30;17.80;;;;;;;5.09;75.88;99867.02;88294;1273;87504;-70
2022/04/23 00:19:36;;;;;;;22.00;16.70;;;;;;;5.14;75.91;99863.91;88266;1273;94797;-71
2022/04/23 00:21:45;;;;;;;24.80;17.70;;;;;;;5.16;75.87;99865.10;88241;1273;79819;-70
2022/04/23 00:23:54;;;;;;;24.50;17.70;;;;;;;5.21;76.07;99858.38;88261;1273;82133;-59
2022/04/23 00:26:03;;;;;;;23.50;17.10;;;;;;;5.25;75.95;99853.55;88272;1273;99670;-59
2022/04/23 00:28:12;;;;;;;21.60;16.80;;;;;;;5.28;75.88;99852.15;88224;1273;88744;-59
2022/04/23 00:30:21;;;;;;;24.50;17.80;;;;;;;5.35;75.97;99853.79;88164;1273;91835;-59
2022/04/23 00:32:30;;;;;;;24.20;18.70;;;;;;;5.37;75.90;99850.36;88270;1273;78598;-58
2022/04/23 00:34:39;;;;;;;26.20;18.50;;;;;;;5.36;76.02;99846.10;88283;1271;82616;-58
2022/04/23 00:36:48;;;;;;;20.90;17.20;;;;;;;5.34;75.95;99841.86;88279;1273;99005;-58
2022/04/23 00:39:00;;;;;;;24.20;18.20;;;;;;;5.35;75.66;99844.31;88285;1273;87527;-71
2022/04/23 00:41:43;;;;;;;23.30;18.00;;;;;;;5.38;75.74;99851.67;88249;1273;95289;-71
2022/04/23 00:43:50;;;;;;;25.90;17.20;;;;;;;5.36;75.67;99848.59;88245;1273;81231;-69
2022/04/23 00:46:03;;;;;;;23.00;17.10;;;;;;;5.34;75.60;99844.38;88273;1273;80327;-71
2022/04/23 00:48:16;;;;;;;21.40;17.50;;;;;;;5.31;75.79;99843.88;88272;1273;100310;-71
2022/04/23 00:50:25;;;;;;;21.30;15.70;;;;;;;5.34;75.55;99838.16;88269;1273;89475;-60
2022/04/23 00:52:35;;;;;;;22.70;17.70;;;;;;;5.37;75.76;99836.95;88263;1273;95603;-57
2022/04/23 00:54:47;;;;;;;22.20;15.50;;;;;;;5.38;75.73;99836.09;88245;1273;82575;-60
2022/04/23 00:56:57;;;;;;;21.90;15.50;;;;;;;5.41;75.82;99831.69;88285;1273;83290;-60
2022/04/23 00:59:10;;;;;;;20.20;15.00;;;;;;;5.44;75.79;99826.05;88236;1273;99944;-59
2022/04/23 01:01:23;;;;;;;19.10;15.30;;;;;;;5.50;75.80;99830.89;88298;1273;87705;-60
2022/04/23 01:03:32;;;;;;;19.40;15.60;;;;;;;5.50;75.61;99826.88;88271;1273;94870;-60
2022/04/23 01:05:46;;;;;;;18.80;14.90;;;;;;;5.53;75.54;99825.70;88256;1273;79870;-60
2022/04/23 01:07:56;;;;;;;20.00;15.90;;;;;;;5.54;75.82;99825.60;88307;1273;83550;-59
2022/04/23 01:10:05;;;;;;;20.70;16.20;;;;;;;5.53;75.74;99815.48;88288;1273;99987;-70
2022/04/23 01:12:16;;;;;;;22.10;16.60;;;;;;;5.54;75.86;99811.69;88276;1273;89801;-71
2022/04/23 01:14:25;;;;;;;19.10;15.70;;;;;;;5.52;75.79;99812.23;88311;1273;94810;-60
2022/04/23 01:16:35;;;;;;;21.00;16.20;;;;;;;5.50;75.85;99808.92;88261;1273;79596;-60
2022/04/23 01:18:46;;;;;;;19.90;15.60;;;;;;;5.50;75.62;99808.05;88325;1273;79941;-71
2022/04/23 01:20:55;;;;;;;18.90;14.60;;;;;;;5.51;75.75;99806.68;88187;1273;100203;-71
2022/04/23 01:23:04;;;;;;;19.10;15.10;;;;;;;5.52;75.82;99805.57;88284;1273;89061;-71
2022/04/23 01:25:16;;;;;;;19.10;14.50;;;;;;;5.55;75.68;99801.68;88174;1273;95333;-61
2022/04/23 01:27:30;;;;;;;17.40;13.60;;;;;;;5.55;75.72;99800.11;88231;1273;80442;-60
2022/04/23 01:29:39;;;;;;;18.20;13.80;;;;;;;5.53;75.77;99799.97;88206;1274;81559;-71
2022/04/23 01:31:51;;;;;;;19.20;14.70;;;;;;;5.49;75.62;99803.07;88217;1273;99805;-71
2022/04/23 01:34:04;;;;;;;17.90;14.30;;;;;;;5.45;75.53;99795.14;88208;1274;86985;-59
2022/04/23 01:36:16;;;;;;;19.80;15.50;;;;;;;5.43;75.61;99796.35;88253;1273;93170;-60
2022/04/23 01:38:25;;;;;;;18.70;14.40;;;;;;;5.37;75.68;99796.36;88171;1274;77190;-69
2022/04/23 01:40:37;;;;;;;19.00;15.00;;;;;;;5.33;75.71;99795.77;88205;1274;82970;-70
2022/04/23 01:42:46;;;;;;;17.50;14.10;;;;;;;5.31;75.73;99788.11;88225;1273;98727;-71
2022/04/23 01:44:57;;;;;;;21.50;16.00;;;;;;;5.31;76.00;99789.52;88207;1273;88864;-70
2022/04/23 01:47:07;;;;;;;18.20;14.20;;;;;;;5.30;75.86;99781.69;88201;1274;94512;-69
2022/04/23 01:49:19;;;;;;;18.60;14.50;;;;;;;5.32;75.93;99782.25;88235;1273;78256;-59
2022/04/23 01:51:28;;;;;;;20.00;14.20;;;;;;;5.35;76.03;99775.14;88215;1273;82852;-59
2022/04/23 01:53:36;;;;;;;18.80;13.70;;;;;;;5.35;76.07;99775.71;88211;1273;98541;-60
2022/04/23 01:55:48;;;;;;;16.10;12.80;;;;;;;5.35;76.28;99774.61;88238;1273;88923;-59
2022/04/23 01:57:57;;;;;;;17.40;14.30;;;;;;;5.39;76.33;99770.18;88157;1274;94503;-58
2022/04/23 02:00:08;;;;;;;19.10;14.00;;;;;;;5.41;76.07;99767.61;88214;1273;78896;-70
2022/04/23 02:02:17;;;;;;;19.00;14.70;;;;;;;5.42;76.29;99764.41;88239;1273;80853;-71
2022/04/23 02:04:26;;;;;;;20.00;15.10;;;;;;;5.42;76.34;99761.77;88224;1273;99863;-60
2022/04/23 02:06:35;;;;;;;20.60;15.40;;;;;;;5.39;76.24;99762.59;88246;1273;87347;-60
2022/04/23 02:08:44;;;;;;;20.50;16.10;;;;;;;5.40;76.45;99761.58;88190;1274;95556;-59
2022/04/23 02:10:54;;;;;;;18.90;15.20;;;;;;;5.44;76.60;99762.84;88191;1273;78780;-59
2022/04/23 02:13:03;;;;;;;19.10;14.90;;;;;;;5.43;76.32;99759.83;88239;1273;80974;-59
2022/04/23 02:15:14;;;;;;;18.30;15.60;;;;;;;5.41;76.45;99758.13;88219;1273;98596;-59
2022/04/23 02:17:23;;;;;;;19.40;15.40;;;;;;;5.41;76.62;99755.98;88222;1273;89395;-58
2022/04/23 02:19:33;;;;;;;18.90;15.00;;;;;;;5.44;76.38;99749.05;88183;1273;95941;-59
2022/04/23 02:21:43;;;;;;;18.40;14.80;;;;;;;5.48;76.52;99746.31;88184;1274;79021;-59
2022/04/23 02:23:53;;;;;;;18.00;14.30;;;;;;;5.52;76.42;99751.34;88245;1273;82715;-70
2022/04/23 02:26:01;;;;;;;17.00;13.90;;;;;;;5.56;76.32;99752.29;88217;1273;99985;-70
2022/04/23 02:28:11;;;;;;;17.40;14.80;;;;;;;5.56;76.45;99754.05;88197;1273;88653;-70
2022/04/23 02:30:22;;;;;;;19.50;14.90;;;;;;;5.57;76.31;99754.68;88226;1273;95986;-58
2022/04/23 02:32:30;;;;;;;18.80;14.90;;;;;;;5.48;76.27;99757.33;88236;1273;78245;-59
2022/04/23 02:34:42;;;;;;;19.10;14.70;;;;;;;5.40;76.30;99755.92;88217;1273;83292;-59
2022/04/23 02:36:51;;;;;;;19.90;14.90;;;;;;;5.30;76.22;99758.05;88218;1273;99959;-59
2022/04/23 02:39:01;;;;;;;19.60;15.40;;;;;;;5.24;76.26;99756.96;88248;1273;89521;-59
2022/04/23 02:41:11;;;;;;;19.00;15.90;;;;;;;5.15;76.29;99756.41;88208;1273;95590;-59
2022/04/23 02:43:28;;;;;;;19.90;16.40;;;;;;;5.06;76.12;99756.29;88220;1273;78480;-58
2022/04/23 02:45:37;;;;;;;21.00;15.80;;;;;;;4.95;76.05;99755.85;88233;1273;81245;-70
2022/04/23 02:47:49;;;;;;;20.30;15.70;;;;;;;4.83;76.00;99758.77;88215;1273;98299;-71
2022/04/23 02:49:58;;;;;;;19.20;14.90;;;;;;;4.71;76.02;99761.81;88252;1273;89184;-71
2022/04/23 02:52:08;;;;;;;19.50;15.00;;;;;;;4.63;75.90;99762.05;88204;1273;95304;-69
2022/04/23 02:54:20;;;;;;;17.30;14.30;;;;;;;4.55;76.16;99762.38;88202;1273;80641;-60
2022/04/23 02:56:33;;;;;;;17.30;14.00;;;;;;;4.55;76.19;99757.53;88215;1273;83367;-58
2022/04/23 02:58:42;;;;;;;20.20;15.50;;;;;;;4.55;76.34;99761.30;88218;1273;99874;-59
2022/04/23 03:00:52;;;;;;;18.90;14.80;;;;;;;4.57;76.66;99759.97;88212;1273;89578;-60
2022/04/23 03:03:05;;;;;;;18.30;14.10;;;;;;;4.57;76.90;99757.13;88206;1273;94550;-59
2022/04/23 03:05:17;;;;;;;17.40;14.40;;;;;;;4.60;77.08;99755.79;88221;1273;79348;-70
2022/04/23 03:07:29;;;;;;;19.00;14.20;;;;;;;4.60;77.16;99756.99;88252;1273;81306;-71
2022/04/23 03:09:38;;;;;;;17.40;14.20;;;;;;;4.62;77.39;99753.35;88175;1273;100000;-58
2022/04/23 03:11:51;;;;;;;18.60;13.90;;;;;;;4.66;77.32;99752.98;88223;1273;87360;-59
2022/04/23 03:14:00;;;;;;;17.80;13.80;;;;;;;4.68;77.68;99749.81;88216;1273;95146;-59
2022/04/23 03:16:10;;;;;;;17.40;13.60;;;;;;;4.71;77.61;99749.95;88208;1273;80322;-59
2022/04/23 03:18:20;;;;;;;18.40;14.50;;;;;;;4.80;77.77;99749.80;88220;1273;82205;-60
2022/04/23 03:20:29;;;;;;;18.90;15.60;;;;;;;4.88;77.61;99750.67;88159;1274;99872;-70
2022/04/23 03:22:38;;;;;;;18.70;15.20;;;;;;;4.89;77.92;99750.80;88174;1274;88954;-70
2022/04/23 03:24:51;;;;;;;19.60;14.90;;;;;;;4.92;77.90;99750.66;88205;1274;94713;-60
2022/04/23 03:27:01;;;;;;;19.20;16.00;;;;;;;4.89;77.82;99744.63;88222;1274;78883;-60
2022/04/23 03:29:12;;;;;;;19.50;14.90;;;;;;;4.88;77.85;99745.55;88206;1273;80894;-70
2022/04/23 03:31:21;;;;;;;19.30;13.80;;;;;;;4.90;78.12;99747.74;88243;1273;97854;-69
2022/04/23 03:33:30;;;;;;;17.80;14.80;;;;;;;4.94;77.88;99750.36;88220;1273;86942;-60
2022/04/23 03:35:42;;;;;;;18.00;14.50;;;;;;;4.99;77.92;99756.48;88213;1273;95627;-60
2022/04/23 03:37:51;;;;;;;22.10;15.50;;;;;;;5.01;77.85;99759.72;88199;1273;81814;-59
2022/04/23 03:40:08;;;;;;;19.50;15.30;;;;;;;5.00;77.89;99761.52;88210;1273;81638;-70
2022/04/23 03:42:20;;;;;;;18.40;14.80;;;;;;;5.00;77.77;99758.27;88237;1273;99739;-71
2022/04/23 03:44:33;;;;;;;20.20;15.20;;;;;;;5.01;77.90;99760.27;88175;1274;89119;-58
2022/04/23 03:46:45;;;;;;;18.80;15.30;;;;;;;5.04;77.88;99759.58;87955;1274;94145;-58
2022/04/23 03:48:54;;;;;;;20.30;15.90;;;;;;;5.04;77.86;99761.02;88199;1273;77429;-58
2022/04/23 03:51:02;;;;;;;18.90;15.40;;;;;;;5.06;77.82;99762.25;88238;1273;82940;-58
2022/04/23 03:53:15;;;;;;;20.30;15.70;;;;;;;5.03;77.80;99762.52;88228;1273;100216;-59
2022/04/23 03:55:24;;;;;;;22.50;16.70;;;;;;;5.01;77.87;99764.23;88248;1273;87740;-58
2022/04/23 03:57:43;;;;;;;21.70;16.70;;;;;;;4.99;78.04;99764.48;88197;1273;95856;-58
2022/04/23 03:59:55;;;;;;;19.00;16.10;;;;;;;4.95;77.90;99768.09;88201;1273;79280;-59
2022/04/23 04:02:05;;;;;;;20.70;15.40;;;;;;;4.97;78.00;99765.83;88228;1273;82447;-57
2022/04/23 04:04:17;;;;;;;22.10;16.50;;;;;;;5.01;78.23;99764.60;88218;1273;100332;-59
2022/04/23 04:06:27;;;;;;;19.60;15.20;;;;;;;5.06;78.06;99766.66;88224;1273;87560;-57
2022/04/23 04:08:38;;;;;;;21.50;15.80;;;;;;;5.05;78.01;99765.23;88223;1273;95193;-71
2022/04/23 04:10:47;;;;;;;19.80;16.00;;;;;;;5.02;78.02;99763.86;88204;1273;79167;-69
2022/04/23 04:12:56;;;;;;;20.00;16.30;;;;;;;4.99;77.77;99761.25;88219;1273;80604;-71
2022/04/23 04:15:11;;;;;;;20.80;16.60;;;;;;;4.99;77.81;99762.70;88222;1273;99275;-60
2022/04/23 04:17:20;;;;;;;18.80;16.30;;;;;;;4.95;77.56;99762.02;88246;1273;87672;-58
2022/04/23 04:19:32;;;;;;;20.70;16.20;;;;;;;4.92;77.83;99764.84;88272;1273;95277;-70
2022/04/23 04:21:41;;;;;;;20.10;16.80;;;;;;;4.89;77.88;99763.90;88212;1273;81236;-71
2022/04/23 04:23:50;;;;;;;16.20;14.40;;;;;;;4.87;77.89;99762.45;88230;1273;82468;-60
2022/04/23 04:25:58;;;;;;;20.50;15.40;;;;;;;4.87;78.19;99766.36;88205;1273;98321;-59
2022/04/23 04:28:09;;;;;;;17.70;14.80;;;;;;;4.92;78.33;99765.61;88214;1275;88849;-60
2022/04/23 04:30:22;;;;;;;18.30;15.40;;;;;;;4.94;78.25;99766.31;88176;1275;95081;-59
2022/04/23 04:32:34;;;;;;;20.80;16.20;;;;;;;5.06;78.24;99762.02;88196;1273;81057;-58
2022/04/23 04:34:43;;;;;;;19.00;15.80;;;;;;;5.22;78.26;99762.92;88240;1273;83101;-71
2022/04/23 04:37:04;;;;;;;22.50;16.30;;;;;;;5.34;78.09;99765.17;88213;1273;98537;-68
2022/04/23 04:39:17;;;;;;;20.80;16.80;;;;;;;5.53;78.24;99762.88;88197;1275;88070;-60
2022/04/23 04:41:29;;;;;;;18.90;16.40;;;;;;;5.64;78.01;99761.02;88214;1273;93998;-58
2022/04/23 04:43:39;;;;;;;20.50;16.70;;;;;;;5.81;78.10;99758.52;88198;1273;78589;-71
2022/04/23 04:45:51;;;;;;;21.90;17.60;;;;;;;5.94;77.86;99757.60;88182;1275;82348;-69
2022/04/23 04:48:04;;;;;;;22.60;17.30;;;;;;;6.05;77.77;99759.23;88215;1273;99528;-58
2022/04/23 04:50:17;;;;;;;21.30;16.90;;;;;;;6.15;77.45;99759.06;88251;1273;87540;-60
2022/04/23 04:52:26;;;;;;;19.60;16.50;;;;;;;6.20;77.52;99757.12;88187;1273;96718;-59
2022/04/23 04:54:38;;;;;;;23.30;16.90;;;;;;;6.24;77.18;99761.59;88171;1274;77051;-69
2022/04/23 04:56:48;;;;;;;20.90;16.60;;;;;;;6.27;77.14;99757.52;88238;1273;82285;-69
2022/04/23 04:59:00;;;;;;;19.80;16.60;;;;;;;6.30;77.34;99761.08;88266;1273;100589;-69
2022/04/23 05:01:09;;;;;;;20.20;16.20;;;;;;;6.35;77.30;99761.19;88247;1273;87271;-69
2022/04/23 05:03:20;;;;;;;20.40;16.50;;;;;;;6.46;77.03;99758.45;88253;1273;92934;-70
2022/04/23 05:05:33;;;;;;;20.00;16.20;;;;;;;6.71;77.15;99759.48;88242;1273;80123;-60
2022/04/23 05:07:42;;;;;;;17.40;15.10;;;;;;;7.00;77.11;99756.09;88224;1273;81985;-58
2022/04/23 05:09:51;;;;;;;18.20;15.50;;;;;;;7.18;76.84;99757.44;88254;1273;97992;-58
2022/04/23 05:12:00;;;;;;;17.80;15.10;;;;;;;7.28;76.74;99758.52;88241;1273;87256;-59
2022/04/23 05:14:09;;;;;;;16.70;14.60;;;;;;;7.33;76.52;99764.40;88258;1273;94988;-60
2022/04/23 05:16:19;;;;;;;18.80;15.00;;;;;;;7.33;76.25;99765.41;88254;1273;77826;-58
2022/04/23 05:18:31;;;;;;;18.20;14.90;;;;;;;7.34;76.18;99766.02;88264;1273;82220;-70
2022/04/23 05:20:40;;;;;;;19.40;15.40;;;;;;;7.36;76.09;99764.87;88255;1273;99758;-70
2022/04/23 05:22:52;;;;;;;18.30;15.70;;;;;;;7.41;75.90;99765.27;88288;1273;87628;-71
2022/04/23 05:25:04;;;;;;;18.40;16.40;;;;;;;7.45;75.67;99770.99;88256;1273;92701;-69
2022/04/23 05:27:17;;;;;;;16.50;14.80;;;;;;;7.41;75.58;99769.69;88267;1273;78949;-69
2022/04/23 05:29:26;;;;;;;20.00;16.90;;;;;;;7.35;75.50;99769.81;88276;1273;80146;-70
2022/04/23 05:31:38;;;;;;;17.60;14.80;;;;;;;7.30;75.40;99768.70;88261;1273;98112;-70
2022/04/23 05:33:47;;;;;;;17.70;15.90;;;;;;;7.30;75.40;99768.99;88250;1273;90432;-60
2022/04/23 05:36:00;;;;;;;18.20;16.20;;;;;;;7.37;75.22;99767.75;88228;1273;95508;-57
2022/04/23 05:38:09;;;;;;;20.80;17.50;;;;;;;7.48;75.34;99767.15;88247;1273;78884;-59
2022/04/23 05:40:21;;;;;;;20.90;17.00;;;;;;;7.57;75.35;99766.75;88262;1273;81689;-70
2022/04/23 05:42:31;;;;;;;20.40;16.50;;;;;;;7.65;75.19;99764.20;88275;1273;97887;-72
2022/04/23 05:44:41;;;;;;;20.20;16.20;;;;;;;7.80;75.24;99765.60;88303;1273;87533;-58
2022/04/23 05:46:49;;;;;;;18.70;15.40;;;;;;;7.94;75.26;99762.84;88223;1273;95914;-59
2022/04/23 05:49:00;;;;;;;17.30;15.20;;;;;;;8.27;75.19;99759.74;88236;1273;80043;-66
2022/04/23 05:51:12;;;;;;;16.60;13.30;;;;;;;8.75;75.11;99756.60;88247;1273;80569;-57
2022/04/23 05:53:25;;;;;;;16.10;14.00;;;;;;;9.55;75.62;99754.75;88246;1273;99659;-62
2022/04/23 05:55:34;;;;;;;14.20;12.70;;;;;;;12.20;76.34;99749.33;88237;1273;88590;-70
2022/04/23 05:57:47;;;;;;;14.60;13.10;;;;;;;13.97;73.85;99751.40;88226;1273;95062;-69
2022/04/23 05:59:57;;;;;;;13.30;11.90;;;;;;;14.81;72.42;99751.64;88254;1273;80834;-60
2022/04/23 06:02:08;;;;;;;12.00;10.50;;;;;;;14.84;69.89;99749.13;88263;1273;80053;-64
2022/04/23 06:04:17;;;;;;;13.40;12.10;;;;;;;14.36;68.56;99748.80;88255;1273;97698;-70
2022/04/23 06:06:26;;;;;;;12.10;10.90;;;;;;;13.84;68.59;99753.41;88258;1273;87557;-70
2022/04/23 06:08:35;;;;;;;12.30;11.00;;;;;;;13.45;67.98;99753.95;88255;1273;95392;-60
2022/04/23 06:10:45;;;;;;;12.60;11.30;;;;;;;13.12;67.20;99750.64;88252;1273;78784;-60
2022/04/23 06:12:55;;;;;;;11.70;10.30;;;;;;;12.58;67.10;99742.96;88253;1273;81081;-60
2022/04/23 06:15:04;;;;;;;11.70;10.30;;;;;;;12.30;66.44;99747.52;88265;1273;97865;-60
2022/04/23 06:17:17;;;;;;;9.80;8.80;;;;;;;12.05;66.62;99746.50;88255;1273;88879;-59
2022/04/23 06:19:26;;;;;;;9.70;8.70;;;;;;;12.03;67.00;99745.46;88255;1273;95555;-71
2022/04/23 06:21:35;;;;;;;8.80;7.90;;;;;;;12.25;67.13;99743.65;88234;1273;78194;-61
2022/04/23 06:23:47;;;;;;;9.30;8.40;;;;;;;12.79;67.23;99745.09;88252;1273;80233;-60
2022/04/23 06:25:56;;;;;;;9.10;8.00;;;;;;;13.65;66.69;99742.51;88247;1273;99410;-59
2022/04/23 06:28:10;;;;;;;7.30;6.60;;;;;;;14.67;65.67;99738.28;88255;1273;89413;-56
2022/04/23 06:30:19;;;;;;;7.50;6.70;;;;;;;15.27;64.31;99731.54;88260;1273;95254;-59
2022/04/23 06:32:28;;;;;;;7.80;7.10;;;;;;;15.36;63.78;99733.34;88224;1273;78120;-59
2022/04/23 06:34:41;;;;;;;8.20;7.40;;;;;;;15.01;63.16;99731.16;88286;1273;80867;-60
2022/04/23 06:36:50;;;;;;;7.40;6.70;;;;;;;14.33;62.87;99736.75;88272;1273;98060;-59
2022/04/23 06:38:59;;;;;;;7.10;6.50;;;;;;;13.83;63.02;99740.06;88251;1273;89195;-70
2022/04/23 06:41:11;;;;;;;9.10;7.40;;;;;;;13.65;62.71;99740.17;88247;1273;94129;-71
2022/04/23 06:43:21;;;;;;;8.40;6.70;;;;;;;13.57;62.87;99740.80;88235;1273;78340;-65
2022/04/23 06:45:33;;;;;;;7.20;6.50;;;;;;;13.83;63.34;99735.98;88244;1273;81446;-60
2022/04/23 06:47:46;;;;;;;7.60;6.70;;;;;;;14.18;62.77;99736.54;88263;1273;97928;-60
2022/04/23 06:50:00;;;;;;;7.50;6.80;;;;;;;14.31;62.01;99736.73;88223;1273;87642;-65
2022/04/23 06:52:12;;;;;;;7.80;7.10;;;;;;;14.21;61.29;99739.34;88231;1273;93171;-67
2022/04/23 06:54:22;;;;;;;8.60;7.20;;;;;;;14.37;61.64;99736.50;88234;1273;78412;-61
2022/04/23 06:56:32;;;;;;;7.70;6.90;;;;;;;14.40;61.34;99739.14;88226;1273;81718;-61
2022/04/23 06:58:48;;;;;;;7.60;6.90;;;;;;;14.14;61.02;99740.02;88232;1273;99838;-72
2022/04/23 07:01:01;;;;;;;7.20;6.50;;;;;;;13.75;60.85;99743.95;88251;1273;88019;-71
2022/04/23 07:03:15;;;;;;;7.20;6.50;;;;;;;13.48;60.82;99747.27;88235;1273;95308;-72
2022/04/23 07:05:25;;;;;;;6.70;6.10;;;;;;;13.21;60.86;99745.89;88205;1273;78390;-71
2022/04/23 07:07:37;;;;;;;6.60;6.00;;;;;;;12.81;60.90;99745.77;88240;1273;82765;-70
2022/04/23 07:09:46;;;;;;;7.00;6.20;;;;;;;12.49;61.21;99743.89;88248;1273;98143;-58
2022/04/23 07:11:56;;;;;;;8.30;6.80;;;;;;;12.27;61.41;99744.48;88229;1273;86580;-60
2022/04/23 07:14:06;;;;;;;6.20;5.60;;;;;;;12.10;61.55;99747.82;88214;1273;95737;-69
2022/04/23 07:16:17;;;;;;;6.60;6.00;;;;;;;11.84;61.76;99744.05;88253;1273;77184;-71
2022/04/23 07:18:26;;;;;;;7.00;6.30;;;;;;;11.74;61.89;99744.54;88213;1273;81987;-59
2022/04/23 07:20:39;;;;;;;6.30;5.70;;;;;;;11.70;62.08;99742.61;88216;1273;99692;-59
2022/04/23 07:25:21;;;;;;;6.50;5.40;;;;;;;11.66;62.61;99734.66;88212;1273;93711;-61
2022/04/23 07:27:30;;;;;;;7.50;5.90;;;;;;;11.91;62.64;99732.23;88231;1273;80325;-59
2022/04/23 07:29:40;;;;;;;7.40;6.70;;;;;;;12.05;62.61;99731.02;88265;1273;83186;-61
2022/04/23 07:31:49;;;;;;;6.90;6.20;;;;;;;12.11;62.63;99731.27;88188;1273;99314;-60
2022/04/23 07:38:54;;;;;;;8.20;6.60;;;;;;;11.83;62.38;99726.02;88180;1274;78410;-61
2022/04/23 07:41:03;;;;;;;7.10;6.40;;;;;;;11.66;62.60;99729.44;88240;1273;81019;-62
2022/04/23 07:43:17;;;;;;;8.00;6.60;;;;;;;11.51;62.75;99732.77;88201;1275;98241;-61
2022/04/23 07:45:33;;;;;;;8.30;6.70;;;;;;;11.37;62.94;99729.14;88206;1274;89137;-58
2022/04/23 07:48:23;;;;;;;8.70;7.10;;;;;;;11.13;63.07;99725.77;88165;1274;94214;-61
2022/04/23 07:50:37;;;;;;;7.60;6.90;;;;;;;11.02;63.28;99722.83;88243;1273;78860;-71
2022/04/23 07:52:48;;;;;;;;;;;;;;;10.99;63.34;99723.27;88307;1273;82407;-74
2022/04/23 07:54:57;;;;;;;7.20;6.30;;;;;;;10.91;63.50;99720.83;88201;1274;99983;-70
2022/04/23 07:57:10;;;;;;;6.40;5.70;;;;;;;10.94;63.54;99721.91;88239;1273;88685;-70
2022/04/23 07:59:22;;;;;;;7.10;6.30;;;;;;;10.96;63.77;99720.61;88236;1273;94865;-70
2022/04/23 08:01:32;;;;;;;7.70;6.80;;;;;;;10.91;64.11;99724.48;88202;1273;78594;-71
2022/04/23 08:03:41;;;;;;;13.80;8.90;;;;;;;10.85;64.43;99718.71;88261;1273;82666;-70
2022/04/23 08:05:51;;;;;;;10.90;9.30;;;;;;;10.78;64.85;99719.48;88244;1273;99117;-70
2022/04/23 08:08:01;;;;;;;10.70;9.10;;;;;;;10.75;64.94;99719.04;88229;1273;87542;-60
2022/04/23 08:10:12;;;;;;;9.20;8.30;;;;;;;10.70;65.16;99721.31;88231;1273;92420;-59
2022/04/23 08:12:25;;;;;;;10.50;7.80;;;;;;;10.69;65.27;99720.78;88189;1274;78013;-60
2022/04/23 08:14:34;;;;;;;8.90;7.60;;;;;;;10.67;65.53;99721.89;88267;1273;80138;-69
2022/04/23 08:16:48;;;;;;;7.80;7.00;;;;;;;10.67;65.59;99725.67;88226;1273;99841;-69
2022/04/23 08:18:59;;;;;;;8.70;7.70;;;;;;;10.72;65.66;99719.98;88252;1273;88913;-60
2022/04/23 08:21:09;;;;;;;8.40;7.20;;;;;;;10.72;65.59;99720.12;88234;1273;95053;-60
2022/04/23 08:23:19;;;;;;;8.20;7.40;;;;;;;10.74;65.60;99717.75;88245;1273;79543;-60
2022/04/23 08:25:31;;;;;;;8.50;7.60;;;;;;;10.80;65.70;99713.09;88236;1273;80791;-70
2022/04/23 08:30:33;;;;;;;9.50;8.00;;;;;;;10.92;65.78;99716.63;88232;1273;97017;-68
2022/04/23 08:30:37;;;;;;;8.90;7.80;;;;;;;11.07;65.67;99716.58;88238;1273;89584;-69
2022/04/23 08:32:47;;;;;;;9.10;8.10;;;;;;;11.02;65.52;99717.98;88245;1273;94970;-69
2022/04/23 08:34:56;;;;;;;8.30;7.30;;;;;;;10.95;65.56;99716.26;88248;1273;78874;-59
2022/04/23 08:37:06;;;;;;;8.00;6.90;;;;;;;10.84;65.61;99714.92;88245;1274;81706;-60
2022/04/23 08:39:16;;;;;;;8.20;6.90;;;;;;;10.76;65.62;99715.83;88138;1276;99914;-58
2022/04/23 08:41:29;;;;;;;7.40;6.60;;;;;;;10.66;65.49;99718.11;88211;1274;87043;-60
2022/04/23 08:43:41;;;;;;;;;;;;;;;10.58;65.67;99718.36;88239;1273;95122;-70
2022/04/23 08:45:49;;;;;;;8.00;6.90;;;;;;;10.42;65.82;99721.45;88251;1273;80251;-71
2022/04/23 08:48:01;;;;;;;8.50;7.60;;;;;;;10.32;65.86;99716.36;88283;1273;83624;-70
2022/04/23 08:50:14;;;;;;;7.50;6.60;;;;;;;10.27;65.96;99716.35;88250;1273;99984;-59
2022/04/23 08:52:33;;;;;;;8.80;7.30;;;;;;;10.18;66.16;99716.44;88245;1273;87975;-60
2022/04/23 08:54:43;;;;;;;8.60;7.40;;;;;;;10.10;66.32;99715.31;88262;1273;93093;-72
2022/04/23 08:56:52;;;;;;;7.50;6.50;;;;;;;10.02;66.45;99715.66;88251;1273;80199;-67
2022/04/23 08:59:02;;;;;;;7.60;6.80;;;;;;;9.94;66.47;99718.69;88214;1273;81666;-60
2022/04/23 09:01:12;;;;;;;7.40;6.70;;;;;;;9.93;66.63;99709.80;88273;1273;98517;-61
2022/04/23 09:03:21;;;;;;;9.40;6.40;;;;;;;9.97;66.63;99705.92;88232;1273;86069;-62
2022/04/23 09:05:32;;;;;;;8.70;6.40;;;;;;;10.05;66.86;99704.55;88208;1273;95229;-65
2022/04/23 09:07:56;;;;;;;8.00;5.70;;;;;;;10.20;66.87;99703.04;88218;1274;80968;-65
2022/04/23 09:10:10;;;;;;;5.90;4.90;;;;;;;10.36;66.88;99708.85;88283;1273;81976;-61
2022/04/23 09:12:26;;;;;;;6.40;4.70;;;;;;;10.53;66.95;99707.37;88242;1273;98703;-61
2022/04/23 09:14:37;;;;;;;5.10;4.60;;;;;;;10.72;66.68;99705.16;88234;1273;88083;-69
2022/04/23 09:24:28;;;;;;;5.30;4.40;;;;;;;11.87;66.00;99694.35;88236;1274;99653;-73
2022/04/23 09:26:42;;;;;;;6.30;4.90;;;;;;;12.15;65.63;99692.01;88259;1273;89309;-70
2022/04/23 09:28:51;;;;;;;;;;;;;;;12.46;65.17;99691.62;88238;1273;94538;-61
2022/04/23 09:31:13;;;;;;;5.20;4.70;;;;;;;12.75;64.83;99690.53;88243;1273;81063;-61
2022/04/23 09:33:43;;;;;;;5.60;4.90;;;;;;;13.06;64.55;99691.15;88250;1273;80616;-69
2022/04/23 09:36:01;;;;;;;5.60;5.00;;;;;;;13.35;64.00;99689.60;88229;1273;98085;-70
2022/04/23 09:38:24;;;;;;;7.20;5.90;;;;;;;13.39;63.61;99689.34;88259;1273;87106;-71
2022/04/23 09:40:36;;;;;;;5.70;5.10;;;;;;;13.38;63.27;99688.12;88213;1273;95845;-60
2022/04/23 09:42:59;;;;;;;5.30;4.70;;;;;;;13.46;62.94;99687.27;88261;1273;79632;-60
2022/04/23 09:45:21;;;;;;;5.00;4.50;;;;;;;13.62;62.49;99686.13;88250;1273;81912;-60
2022/04/23 09:47:42;;;;;;;5.40;4.90;;;;;;;13.51;62.28;99689.63;88255;1273;98949;-60
2022/04/23 09:50:01;;;;;;;7.50;5.40;;;;;;;13.54;61.98;99686.60;88241;1273;89462;-61
2022/04/23 09:52:13;;;;;;;9.10;6.80;;;;;;;13.59;61.86;99688.75;88248;1273;94714;-59
2022/04/23 09:54:23;;;;;;;6.90;5.90;;;;;;;13.61;61.39;99681.67;88259;1273;79272;-61
2022/04/23 09:56:33;;;;;;;6.10;5.50;;;;;;;13.55;61.03;99681.98;88264;1273;80679;-60
2022/04/23 09:58:43;;;;;;;5.80;5.20;;;;;;;13.40;60.96;99682.06;88277;1273;97198;-68
2022/04/23 10:00:54;;;;;;;6.70;5.20;;;;;;;13.34;60.96;99681.96;88260;1274;88154;-67
2022/04/23 10:03:06;;;;;;;7.10;5.20;;;;;;;13.30;60.87;99682.66;88241;1273;95639;-70
2022/04/23 10:05:23;;;;;;;7.00;5.30;;;;;;;13.13;60.83;99683.10;88260;1273;80175;-68
2022/04/23 10:07:38;;;;;;;6.40;5.60;;;;;;;13.09;60.97;99683.52;88219;1273;82812;-70
2022/04/23 10:09:57;;;;;;;5.60;5.00;;;;;;;13.15;60.84;99685.45;88267;1273;99336;-68
2022/04/23 10:12:13;;;;;;;5.60;4.60;;;;;;;13.08;60.73;99687.92;88242;1273;87250;-71
2022/04/23 10:14:27;;;;;;;5.80;5.20;;;;;;;13.03;60.63;99684.33;88257;1273;92268;-69
2022/04/23 10:16:38;;;;;;;6.20;4.60;;;;;;;12.95;60.50;99687.69;88246;1274;79110;-70
2022/04/23 10:18:51;;;;;;;7.80;5.80;;;;;;;12.77;60.67;99684.73;88232;1273;83283;-70
2022/04/23 10:21:08;;;;;;;6.50;5.80;;;;;;;12.63;60.85;99685.83;88247;1273;99688;-71
2022/04/23 10:23:42;;;;;;;7.10;6.40;;;;;;;12.64;60.91;99684.04;88261;1273;88519;-71
2022/04/23 10:26:17;;;;;;;7.60;6.80;;;;;;;12.65;61.14;99685.98;88234;1273;94435;-60
2022/04/23 10:28:28;;;;;;;;;;;;;;;12.61;61.17;99685.85;88255;1273;81145;-61
2022/04/23 10:30:41;;;;;;;8.90;8.00;;;;;;;12.43;61.11;99683.67;88164;1275;81222;-60
2022/04/23 10:32:50;;;;;;;9.30;8.10;;;;;;;12.34;61.26;99684.52;88176;1274;100923;-60